Terminal Aerodrome Forecast
Issued by NWS

Home | Current Version | Previous Version | Text Only | Print | Product List | Glossary On
Versions: 1 2 3 4 5 6 7 8 9 10 11 12 13
000
FTUS43 KDVN 120500
TAFBRL
TAF
KBRL 120520Z 1206/1306 11004KT P6SM SCT040 BKN120
     FM120900 15006KT P6SM BKN025 OVC035
     FM121400 19005KT P6SM SCT035 BKN100
     FM121900 21005KT P6SM OVC100=

USA.gov is the U.S. government's official web portal to all federal, state and local government web resources and services.